sensor_id;sensor_type;location;lat;lon;timestamp;pressure;altitude;pressure_sealevel;temperature
48854;BMP280;34673;52.808;17.856;2023-04-30T00:01:09;100465.66;;;9.24
48854;BMP280;34673;52.808;17.856;2023-04-30T00:03:36;100473.38;;;9.29
48854;BMP280;34673;52.808;17.856;2023-04-30T00:06:03;100465.66;;;9.24
48854;BMP280;34673;52.808;17.856;2023-04-30T00:08:31;100469.09;;;9.26
48854;BMP280;34673;52.808;17.856;2023-04-30T00:10:58;100471.66;;;9.25
48854;BMP280;34673;52.808;17.856;2023-04-30T00:13:25;100473.38;;;9.21
48854;BMP280;34673;52.808;17.856;2023-04-30T00:15:52;100479.44;;;9.20
48854;BMP280;34673;52.808;17.856;2023-04-30T00:18:19;100486.31;;;9.18
48854;BMP280;34673;52.808;17.856;2023-04-30T00:20:46;100475.13;;;9.16
48854;BMP280;34673;52.808;17.856;2023-04-30T00:23:13;100482.84;;;9.15
48854;BMP280;34673;52.808;17.856;2023-04-30T00:25:41;100482.84;;;9.05
48854;BMP280;34673;52.808;17.856;2023-04-30T00:28:08;100488.00;;;9.01
48854;BMP280;34673;52.808;17.856;2023-04-30T00:30:35;100491.47;;;8.97
48854;BMP280;34673;52.808;17.856;2023-04-30T00:33:02;100498.31;;;8.98
48854;BMP280;34673;52.808;17.856;2023-04-30T00:35:29;100503.50;;;8.95
48854;BMP280;34673;52.808;17.856;2023-04-30T00:37:56;100501.78;;;8.94
48854;BMP280;34673;52.808;17.856;2023-04-30T00:40:23;100506.94;;;8.91
48854;BMP280;34673;52.808;17.856;2023-04-30T00:42:50;100516.38;;;8.87
48854;BMP280;34673;52.808;17.856;2023-04-30T00:45:19;100510.34;;;8.83
48854;BMP280;34673;52.808;17.856;2023-04-30T00:47:48;100512.06;;;8.78
48854;BMP280;34673;52.808;17.856;2023-04-30T00:50:16;100518.94;;;8.73
48854;BMP280;34673;52.808;17.856;2023-04-30T00:52:43;100515.47;;;8.68
48854;BMP280;34673;52.808;17.856;2023-04-30T00:55:12;100506.03;;;8.61
48854;BMP280;34673;52.808;17.856;2023-04-30T00:57:40;100529.25;;;8.64
48854;BMP280;34673;52.808;17.856;2023-04-30T01:00:07;100528.38;;;8.62
48854;BMP280;34673;52.808;17.856;2023-04-30T01:02:37;100537.81;;;8.60
48854;BMP280;34673;52.808;17.856;2023-04-30T01:05:06;100531.78;;;8.59
48854;BMP280;34673;52.808;17.856;2023-04-30T01:07:34;100535.25;;;8.58
48854;BMP280;34673;52.808;17.856;2023-04-30T01:10:01;100536.06;;;8.54
48854;BMP280;34673;52.808;17.856;2023-04-30T01:12:36;100536.09;;;8.53
48854;BMP280;34673;52.808;17.856;2023-04-30T01:15:27;100541.22;;;8.50
48854;BMP280;34673;52.808;17.856;2023-04-30T01:18:30;100539.50;;;8.46
48854;BMP280;34673;52.808;17.856;2023-04-30T01:21:06;100539.47;;;8.42
48854;BMP280;34673;52.808;17.856;2023-04-30T01:26:33;100543.72;;;8.34
48854;BMP280;34673;52.808;17.856;2023-04-30T01:29:04;100546.28;;;8.31
48854;BMP280;34673;52.808;17.856;2023-04-30T01:31:32;100558.28;;;8.29
48854;BMP280;34673;52.808;17.856;2023-04-30T01:33:59;100553.13;;;8.26
48854;BMP280;34673;52.808;17.856;2023-04-30T01:36:49;100555.69;;;8.25
48854;BMP280;34673;52.808;17.856;2023-04-30T01:42:22;100571.97;;;8.16
48854;BMP280;34673;52.808;17.856;2023-04-30T01:45:11;100568.50;;;8.14
48854;BMP280;34673;52.808;17.856;2023-04-30T01:47:47;100580.56;;;8.12
48854;BMP280;34673;52.808;17.856;2023-04-30T01:50:37;100584.81;;;8.10
48854;BMP280;34673;52.808;17.856;2023-04-30T01:53:09;100571.91;;;8.04
48854;BMP280;34673;52.808;17.856;2023-04-30T01:55:41;100585.63;;;8.03
48854;BMP280;34673;52.808;17.856;2023-04-30T01:58:11;100589.09;;;8.05
48854;BMP280;34673;52.808;17.856;2023-04-30T02:00:39;100591.63;;;8.03
48854;BMP280;34673;52.808;17.856;2023-04-30T02:03:06;100594.22;;;8.02
48854;BMP280;34673;52.808;17.856;2023-04-30T02:05:34;100589.06;;;8.02
48854;BMP280;34673;52.808;17.856;2023-04-30T02:08:01;100597.63;;;8.00
48854;BMP280;34673;52.808;17.856;2023-04-30T02:10:29;100590.78;;;7.99
48854;BMP280;34673;52.808;17.856;2023-04-30T02:12:56;100593.31;;;7.96
48854;BMP280;34673;52.808;17.856;2023-04-30T02:15:23;100596.72;;;7.92
48854;BMP280;34673;52.808;17.856;2023-04-30T02:17:50;100601.03;;;7.93
48854;BMP280;34673;52.808;17.856;2023-04-30T02:20:18;100603.63;;;7.93
48854;BMP280;34673;52.808;17.856;2023-04-30T02:22:45;100601.03;;;7.90
48854;BMP280;34673;52.808;17.856;2023-04-30T02:25:12;100603.56;;;7.86
48854;BMP280;34673;52.808;17.856;2023-04-30T02:27:40;100607.84;;;7.82
48854;BMP280;34673;52.808;17.856;2023-04-30T02:30:08;100611.22;;;7.75
48854;BMP280;34673;52.808;17.856;2023-04-30T02:32:35;100617.19;;;7.71
48854;BMP280;34673;52.808;17.856;2023-04-30T02:35:03;100617.16;;;7.66
48854;BMP280;34673;52.808;17.856;2023-04-30T02:37:30;100617.13;;;7.65
48854;BMP280;34673;52.808;17.856;2023-04-30T02:39:57;100620.56;;;7.64
48854;BMP280;34673;52.808;17.856;2023-04-30T02:42:24;100628.25;;;7.61
48854;BMP280;34673;52.808;17.856;2023-04-30T02:44:51;100618.81;;;7.58
48854;BMP280;34673;52.808;17.856;2023-04-30T02:47:18;100612.72;;;7.51
48854;BMP280;34673;52.808;17.856;2023-04-30T02:49:45;100629.91;;;7.54
48854;BMP280;34673;52.808;17.856;2023-04-30T02:52:13;100633.31;;;7.51
48854;BMP280;34673;52.808;17.856;2023-04-30T02:54:40;100628.16;;;7.48
48854;BMP280;34673;52.808;17.856;2023-04-30T02:57:07;100628.16;;;7.48
48854;BMP280;34673;52.808;17.856;2023-04-30T02:59:34;100634.16;;;7.47
48854;BMP280;34673;52.808;17.856;2023-04-30T03:02:01;100629.81;;;7.43
48854;BMP280;34673;52.808;17.856;2023-04-30T03:04:29;100634.97;;;7.43
48854;BMP280;34673;52.808;17.856;2023-04-30T03:06:56;100636.69;;;7.41
48854;BMP280;34673;52.808;17.856;2023-04-30T03:09:23;100640.06;;;7.37
48854;BMP280;34673;52.808;17.856;2023-04-30T03:11:50;100634.84;;;7.31
48854;BMP280;34673;52.808;17.856;2023-04-30T03:14:17;100641.72;;;7.30
48854;BMP280;34673;52.808;17.856;2023-04-30T03:16:44;100642.56;;;7.32
48854;BMP280;34673;52.808;17.856;2023-04-30T03:19:12;100646.88;;;7.32
48854;BMP280;34673;52.808;17.856;2023-04-30T03:21:39;100654.63;;;7.35
48854;BMP280;34673;52.808;17.856;2023-04-30T03:24:06;100647.75;;;7.34
48854;BMP280;34673;52.808;17.856;2023-04-30T03:26:34;100655.41;;;7.29
48854;BMP280;34673;52.808;17.856;2023-04-30T03:29:01;100658.84;;;7.30
48854;BMP280;34673;52.808;17.856;2023-04-30T03:31:28;100672.56;;;7.29
48854;BMP280;34673;52.808;17.856;2023-04-30T03:33:55;100675.16;;;7.29
48854;BMP280;34673;52.808;17.856;2023-04-30T03:36:22;100681.13;;;7.25
48854;BMP280;34673;52.808;17.856;2023-04-30T03:38:50;100684.53;;;7.24
48854;BMP280;34673;52.808;17.856;2023-04-30T03:41:17;100681.06;;;7.22
48854;BMP280;34673;52.808;17.856;2023-04-30T03:43:44;100681.06;;;7.22
48854;BMP280;34673;52.808;17.856;2023-04-30T03:46:12;100680.19;;;7.17
48854;BMP280;34673;52.808;17.856;2023-04-30T03:48:39;100686.19;;;7.19
48854;BMP280;34673;52.808;17.856;2023-04-30T03:51:06;100680.97;;;7.13
48854;BMP280;34673;52.808;17.856;2023-04-30T03:53:33;100679.25;;;7.12
48854;BMP280;34673;52.808;17.856;2023-04-30T03:56:01;100689.56;;;7.12
48854;BMP280;34673;52.808;17.856;2023-04-30T03:58:29;100699.88;;;7.15
48854;BMP280;34673;52.808;17.856;2023-04-30T04:00:56;100698.19;;;7.17
48854;BMP280;34673;52.808;17.856;2023-04-30T04:03:24;100704.19;;;7.17
48854;BMP280;34673;52.808;17.856;2023-04-30T04:05:51;100710.19;;;7.18
48854;BMP280;34673;52.808;17.856;2023-04-30T04:08:18;100701.56;;;7.13
48854;BMP280;34673;52.808;17.856;2023-04-30T04:10:45;100717.84;;;7.13
48854;BMP280;34673;52.808;17.856;2023-04-30T04:13:12;100722.13;;;7.13
48854;BMP280;34673;52.808;17.856;2023-04-30T04:15:39;100711.75;;;7.03
48854;BMP280;34673;52.808;17.856;2023-04-30T04:18:07;100715.25;;;7.08
48854;BMP280;34673;52.808;17.856;2023-04-30T04:20:34;100725.59;;;7.15
48854;BMP280;34673;52.808;17.856;2023-04-30T04:23:02;100721.38;;;7.20
48854;BMP280;34673;52.808;17.856;2023-04-30T04:25:29;100717.16;;;7.25
48854;BMP280;34673;52.808;17.856;2023-04-30T04:27:56;100724.03;;;7.29
48854;BMP280;34673;52.808;17.856;2023-04-30T04:30:23;100735.25;;;7.34
48854;BMP280;34673;52.808;17.856;2023-04-30T04:32:50;100736.09;;;7.35
48854;BMP280;34673;52.808;17.856;2023-04-30T04:35:20;100739.53;;;7.35
48854;BMP280;34673;52.808;17.856;2023-04-30T04:37:47;100744.69;;;7.35
48854;BMP280;34673;52.808;17.856;2023-04-30T04:40:14;100744.69;;;7.35
48854;BMP280;34673;52.808;17.856;2023-04-30T04:42:41;100749.94;;;7.44
48854;BMP280;34673;52.808;17.856;2023-04-30T04:45:10;100743.06;;;7.42
48854;BMP280;34673;52.808;17.856;2023-04-30T04:47:38;100759.50;;;7.54
48854;BMP280;34673;52.808;17.856;2023-04-30T04:50:05;100756.97;;;7.58
48854;BMP280;34673;52.808;17.856;2023-04-30T04:52:33;100766.44;;;7.62
48854;BMP280;34673;52.808;17.856;2023-04-30T04:55:00;100769.03;;;7.65
48854;BMP280;34673;52.808;17.856;2023-04-30T04:57:28;100769.88;;;7.65
48854;BMP280;34673;52.808;17.856;2023-04-30T04:59:55;100774.22;;;7.68
48854;BMP280;34673;52.808;17.856;2023-04-30T05:02:22;100773.38;;;7.70
48854;BMP280;34673;52.808;17.856;2023-04-30T05:04:50;100784.63;;;7.77
48854;BMP280;34673;52.808;17.856;2023-04-30T05:07:18;100786.38;;;7.81
48854;BMP280;34673;52.808;17.856;2023-04-30T05:09:45;100795.03;;;7.88
48854;BMP280;34673;52.808;17.856;2023-04-30T05:12:13;100793.38;;;7.94
48854;BMP280;34673;52.808;17.856;2023-04-30T05:14:41;100786.53;;;7.96
48854;BMP280;34673;52.808;17.856;2023-04-30T05:17:08;100800.34;;;8.05
48854;BMP280;34673;52.808;17.856;2023-04-30T05:19:35;100803.84;;;8.13
48854;BMP280;34673;52.808;17.856;2023-04-30T05:22:03;100803.91;;;8.19
48854;BMP280;34673;52.808;17.856;2023-04-30T05:24:30;100799.66;;;8.24
48854;BMP280;34673;52.808;17.856;2023-04-30T05:26:57;100814.28;;;8.25
48854;BMP280;34673;52.808;17.856;2023-04-30T05:29:24;100815.16;;;8.29
48854;BMP280;34673;52.808;17.856;2023-04-30T05:31:52;100816.03;;;8.29
48854;BMP280;34673;52.808;17.856;2023-04-30T05:34:20;100822.03;;;8.30
48854;BMP280;34673;52.808;17.856;2023-04-30T05:36:47;100817.75;;;8.30
48854;BMP280;34673;52.808;17.856;2023-04-30T05:39:14;100816.06;;;8.35
48854;BMP280;34673;52.808;17.856;2023-04-30T05:41:41;100816.09;;;8.38
48854;BMP280;34673;52.808;17.856;2023-04-30T05:44:09;100810.91;;;8.35
48854;BMP280;34673;52.808;17.856;2023-04-30T05:46:36;100829.84;;;8.37
48854;BMP280;34673;52.808;17.856;2023-04-30T05:49:03;100830.00;;;8.50
48854;BMP280;34673;52.808;17.856;2023-04-30T05:51:30;100826.59;;;8.60
48854;BMP280;34673;52.808;17.856;2023-04-30T05:53:58;100831.84;;;8.66
48854;BMP280;34673;52.808;17.856;2023-04-30T05:56:26;100823.22;;;8.64
48854;BMP280;34673;52.808;17.856;2023-04-30T05:58:53;100837.03;;;8.72
48854;BMP280;34673;52.808;17.856;2023-04-30T06:01:20;100840.50;;;8.77
48854;BMP280;34673;52.808;17.856;2023-04-30T06:03:48;100838.84;;;8.85
48854;BMP280;34673;52.808;17.856;2023-04-30T06:06:16;100847.50;;;8.94
48854;BMP280;34673;52.808;17.856;2023-04-30T06:08:43;100840.66;;;9.02
48854;BMP280;34673;52.808;17.856;2023-04-30T06:11:11;100840.69;;;9.05
48854;BMP280;34673;52.808;17.856;2023-04-30T06:13:39;100845.88;;;9.14
48854;BMP280;34673;52.808;17.856;2023-04-30T06:16:07;100851.16;;;9.32
48854;BMP280;34673;52.808;17.856;2023-04-30T06:18:34;100852.91;;;9.44
48854;BMP280;34673;52.808;17.856;2023-04-30T06:21:02;100847.84;;;9.58
48854;BMP280;34673;52.808;17.856;2023-04-30T06:23:29;100850.47;;;9.76
48854;BMP280;34673;52.808;17.856;2023-04-30T06:25:56;100846.19;;;9.85
48854;BMP280;34673;52.808;17.856;2023-04-30T06:28:23;100845.34;;;9.98
48854;BMP280;34673;52.808;17.856;2023-04-30T06:30:51;100854.88;;;10.17
48854;BMP280;34673;52.808;17.856;2023-04-30T06:33:20;100847.97;;;10.26
48854;BMP280;34673;52.808;17.856;2023-04-30T06:35:47;100852.34;;;10.42
48854;BMP280;34673;52.808;17.856;2023-04-30T06:38:16;100851.50;;;10.49
48854;BMP280;34673;52.808;17.856;2023-04-30T06:40:44;100849.78;;;10.54
48854;BMP280;34673;52.808;17.856;2023-04-30T06:43:11;100848.03;;;10.65
48854;BMP280;34673;52.808;17.856;2023-04-30T06:45:38;100849.78;;;10.70
48854;BMP280;34673;52.808;17.856;2023-04-30T06:48:06;100851.50;;;10.86
48854;BMP280;34673;52.808;17.856;2023-04-30T06:50:33;100854.03;;;10.94
48854;BMP280;34673;52.808;17.856;2023-04-30T06:53:00;100851.44;;;11.11
48854;BMP280;34673;52.808;17.856;2023-04-30T06:55:27;100857.44;;;11.17
48854;BMP280;34673;52.808;17.856;2023-04-30T06:57:55;100858.28;;;11.28
48854;BMP280;34673;52.808;17.856;2023-04-30T07:00:23;100863.44;;;11.36
48854;BMP280;34673;52.808;17.856;2023-04-30T07:02:50;100859.97;;;11.43
48854;BMP280;34673;52.808;17.856;2023-04-30T07:05:18;100863.41;;;11.42
48854;BMP280;34673;52.808;17.856;2023-04-30T07:07:45;100863.41;;;11.48
48854;BMP280;34673;52.808;17.856;2023-04-30T07:10:12;100863.38;;;11.58
48854;BMP280;34673;52.808;17.856;2023-04-30T07:12:40;100859.88;;;11.68
48854;BMP280;34673;52.808;17.856;2023-04-30T07:15:07;100866.72;;;11.84
48854;BMP280;34673;52.808;17.856;2023-04-30T07:17:34;100864.09;;;11.95
48854;BMP280;34673;52.808;17.856;2023-04-30T07:20:04;100859.69;;;12.05
48854;BMP280;34673;52.808;17.856;2023-04-30T07:22:31;100866.53;;;12.24
48854;BMP280;34673;52.808;17.856;2023-04-30T07:24:58;100870.81;;;12.30
48854;BMP280;34673;52.808;17.856;2023-04-30T07:27:26;100868.19;;;12.31
48854;BMP280;34673;52.808;17.856;2023-04-30T07:29:54;100881.91;;;12.46
48854;BMP280;34673;52.808;17.856;2023-04-30T07:32:22;100870.63;;;12.54
48854;BMP280;34673;52.808;17.856;2023-04-30T07:34:53;100857.63;;;12.56
48854;BMP280;34673;52.808;17.856;2023-04-30T07:37:20;100878.41;;;12.53
48854;BMP280;34673;52.808;17.856;2023-04-30T07:39:47;100880.19;;;12.45
48854;BMP280;34673;52.808;17.856;2023-04-30T07:42:14;100877.59;;;12.45
48854;BMP280;34673;52.808;17.856;2023-04-30T07:44:42;100871.44;;;12.58
48854;BMP280;34673;52.808;17.856;2023-04-30T07:47:09;100880.81;;;12.73
48854;BMP280;34673;52.808;17.856;2023-04-30T07:49:36;100876.50;;;12.70
48854;BMP280;34673;52.808;17.856;2023-04-30T07:52:03;100873.84;;;12.78
48854;BMP280;34673;52.808;17.856;2023-04-30T07:54:31;100890.31;;;12.78
48854;BMP280;34673;52.808;17.856;2023-04-30T07:57:02;100888.56;;;12.80
48854;BMP280;34673;52.808;17.856;2023-04-30T07:59:29;100879.88;;;12.84
48854;BMP280;34673;52.808;17.856;2023-04-30T08:01:57;100891.78;;;13.05
48854;BMP280;34673;52.808;17.856;2023-04-30T08:04:24;100889.06;;;13.19
48854;BMP280;34673;52.808;17.856;2023-04-30T08:06:52;100891.59;;;13.28
48854;BMP280;34673;52.808;17.856;2023-04-30T08:09:19;100884.50;;;13.43
48854;BMP280;34673;52.808;17.856;2023-04-30T08:11:46;100893.03;;;13.57
48854;BMP280;34673;52.808;17.856;2023-04-30T08:14:13;100894.66;;;13.64
48854;BMP280;34673;52.808;17.856;2023-04-30T08:16:40;100898.88;;;13.74
48854;BMP280;34673;52.808;17.856;2023-04-30T08:19:08;100890.88;;;13.87
48854;BMP280;34673;52.808;17.856;2023-04-30T08:21:35;100900.44;;;13.86
48854;BMP280;34673;52.808;17.856;2023-04-30T08:24:02;100905.50;;;13.99
48854;BMP280;34673;52.808;17.856;2023-04-30T08:26:30;100901.16;;;13.99
48854;BMP280;34673;52.808;17.856;2023-04-30T08:28:57;100907.38;;;13.87
48854;BMP280;34673;52.808;17.856;2023-04-30T08:31:24;100906.63;;;13.78
48854;BMP280;34673;52.808;17.856;2023-04-30T08:33:51;100903.13;;;13.82
48854;BMP280;34673;52.808;17.856;2023-04-30T08:36:18;100909.75;;;14.04
48854;BMP280;34673;52.808;17.856;2023-04-30T08:38:46;100903.56;;;14.13
48854;BMP280;34673;52.808;17.856;2023-04-30T08:41:14;100911.34;;;14.14
48854;BMP280;34673;52.808;17.856;2023-04-30T08:43:47;100900.09;;;14.11
48854;BMP280;34673;52.808;17.856;2023-04-30T08:46:22;100912.97;;;14.22
48854;BMP280;34673;52.808;17.856;2023-04-30T08:48:50;100918.97;;;14.28
48854;BMP280;34673;52.808;17.856;2023-04-30T08:51:18;100914.56;;;14.32
48854;BMP280;34673;52.808;17.856;2023-04-30T08:53:46;100916.31;;;14.30
48854;BMP280;34673;52.808;17.856;2023-04-30T08:56:16;100919.66;;;14.38
48854;BMP280;34673;52.808;17.856;2023-04-30T08:58:43;100916.94;;;14.47
48854;BMP280;34673;52.808;17.856;2023-04-30T09:01:10;100924.69;;;14.53
48854;BMP280;34673;52.808;17.856;2023-04-30T09:03:38;100914.22;;;14.56
48854;BMP280;34673;52.808;17.856;2023-04-30T09:06:05;100922.03;;;14.56
48854;BMP280;34673;52.808;17.856;2023-04-30T09:08:46;100927.97;;;14.65
48854;BMP280;34673;52.808;17.856;2023-04-30T09:13:51;100921.13;;;14.57
48854;BMP280;34673;52.808;17.856;2023-04-30T09:16:20;100929.75;;;14.62
48854;BMP280;34673;52.808;17.856;2023-04-30T09:18:48;100926.16;;;14.70
48854;BMP280;34673;52.808;17.856;2023-04-30T09:21:15;100931.38;;;14.70
48854;BMP280;34673;52.808;17.856;2023-04-30T09:23:57;100941.63;;;14.79
48854;BMP280;34673;52.808;17.856;2023-04-30T09:26:32;100931.16;;;14.85
48854;BMP280;34673;52.808;17.856;2023-04-30T09:29:00;100923.88;;;15.02
48854;BMP280;34673;52.808;17.856;2023-04-30T09:31:34;100928.13;;;15.10
48854;BMP280;34673;52.808;17.856;2023-04-30T09:34:05;100925.47;;;15.13
48854;BMP280;34673;52.808;17.856;2023-04-30T09:36:32;100930.66;;;15.13
48854;BMP280;34673;52.808;17.856;2023-04-30T09:39:10;100939.53;;;15.02
48854;BMP280;34673;52.808;17.856;2023-04-30T09:41:42;100937.63;;;15.11
48854;BMP280;34673;52.808;17.856;2023-04-30T09:44:29;100935.75;;;15.19
48854;BMP280;34673;52.808;17.856;2023-04-30T09:46:56;100930.59;;;15.16
48854;BMP280;34673;52.808;17.856;2023-04-30T09:49:26;100925.34;;;15.19
48854;BMP280;34673;52.808;17.856;2023-04-30T09:51:58;100937.53;;;15.17
48854;BMP280;34673;52.808;17.856;2023-04-30T09:54:30;100925.47;;;15.13
48854;BMP280;34673;52.808;17.856;2023-04-30T09:56:59;100925.50;;;15.10
48854;BMP280;34673;52.808;17.856;2023-04-30T09:59:30;100928.25;;;15.00
48854;BMP280;34673;52.808;17.856;2023-04-30T10:01:58;100928.19;;;15.06
48854;BMP280;34673;52.808;17.856;2023-04-30T10:04:29;100919.34;;;15.15
48854;BMP280;34673;52.808;17.856;2023-04-30T10:06:59;100925.06;;;15.34
48854;BMP280;34673;52.808;17.856;2023-04-30T10:09:34;100917.13;;;15.40
48854;BMP280;34673;52.808;17.856;2023-04-30T10:12:04;100918.88;;;15.38
48854;BMP280;34673;52.808;17.856;2023-04-30T10:14:34;100926.66;;;15.41
48854;BMP280;34673;52.808;17.856;2023-04-30T10:17:12;100923.97;;;15.46
48854;BMP280;34673;52.808;17.856;2023-04-30T10:19:44;100916.97;;;15.48
48854;BMP280;34673;52.808;17.856;2023-04-30T10:22:13;100924.72;;;15.52
48854;BMP280;34673;52.808;17.856;2023-04-30T10:24:41;100914.28;;;15.52
48854;BMP280;34673;52.808;17.856;2023-04-30T10:27:09;100919.50;;;15.52
48854;BMP280;34673;52.808;17.856;2023-04-30T10:29:37;100915.09;;;15.55
48854;BMP280;34673;52.808;17.856;2023-04-30T10:32:05;100922.31;;;15.42
48854;BMP280;34673;52.808;17.856;2023-04-30T10:40:18;100907.69;;;15.80
48854;BMP280;34673;52.808;17.856;2023-04-30T10:42:48;100915.53;;;15.78
48854;BMP280;34673;52.808;17.856;2023-04-30T10:45:16;100913.72;;;15.82
48854;BMP280;34673;52.808;17.856;2023-04-30T10:47:43;100903.19;;;15.86
48854;BMP280;34673;52.808;17.856;2023-04-30T10:50:14;100905.66;;;15.94
48854;BMP280;34673;52.808;17.856;2023-04-30T10:52:43;100900.44;;;15.94
48854;BMP280;34673;52.808;17.856;2023-04-30T10:55:10;100904.91;;;15.87
48854;BMP280;34673;52.808;17.856;2023-04-30T10:57:41;100908.47;;;15.83
48854;BMP280;34673;52.808;17.856;2023-04-30T11:02:45;100907.41;;;15.93
48854;BMP280;34673;52.808;17.856;2023-04-30T11:05:16;100890.53;;;16.10
48854;BMP280;34673;52.808;17.856;2023-04-30T11:10:21;100906.63;;;15.88
48854;BMP280;34673;52.808;17.856;2023-04-30T11:12:50;100906.56;;;15.91
48854;BMP280;34673;52.808;17.856;2023-04-30T11:15:19;100906.66;;;15.87
48854;BMP280;34673;52.808;17.856;2023-04-30T11:17:49;100914.56;;;15.82
48854;BMP280;34673;52.808;17.856;2023-04-30T11:20:22;100905.81;;;15.85
48854;BMP280;34673;52.808;17.856;2023-04-30T11:23:09;100903.91;;;15.93
48854;BMP280;34673;52.808;17.856;2023-04-30T11:25:44;100896.78;;;16.01
48854;BMP280;34673;52.808;17.856;2023-04-30T11:28:17;100904.50;;;16.06
48854;BMP280;34673;52.808;17.856;2023-04-30T11:30:52;100899.38;;;16.03
48854;BMP280;34673;52.808;17.856;2023-04-30T11:33:25;100899.22;;;16.09
48854;BMP280;34673;52.808;17.856;2023-04-30T11:35:54;100899.03;;;16.18
48854;BMP280;34673;52.808;17.856;2023-04-30T11:38:29;100902.53;;;16.17
48854;BMP280;34673;52.808;17.856;2023-04-30T11:40:57;100905.88;;;16.22
48854;BMP280;34673;52.808;17.856;2023-04-30T11:43:29;100898.97;;;16.21
48854;BMP280;34673;52.808;17.856;2023-04-30T11:48:45;100899.84;;;16.20
48854;BMP280;34673;52.808;17.856;2023-04-30T11:51:22;100902.25;;;16.29
48854;BMP280;34673;52.808;17.856;2023-04-30T11:53:51;100898.75;;;16.30
48854;BMP280;34673;52.808;17.856;2023-04-30T11:56:23;100898.88;;;16.24
48854;BMP280;34673;52.808;17.856;2023-04-30T11:58:52;100905.81;;;16.25
48854;BMP280;34673;52.808;17.856;2023-04-30T12:01:26;100902.34;;;16.26
48854;BMP280;34673;52.808;17.856;2023-04-30T12:03:55;100901.41;;;16.29
48854;BMP280;34673;52.808;17.856;2023-04-30T12:06:24;100892.00;;;16.20
48854;BMP280;34673;52.808;17.856;2023-04-30T12:08:57;100892.22;;;16.11
48854;BMP280;34673;52.808;17.856;2023-04-30T12:11:26;100896.50;;;16.15
48854;BMP280;34673;52.808;17.856;2023-04-30T12:14:01;100904.31;;;16.15
48854;BMP280;34673;52.808;17.856;2023-04-30T12:16:42;100906.75;;;16.23
48854;BMP280;34673;52.808;17.856;2023-04-30T12:19:21;100893.81;;;16.18
48854;BMP280;34673;52.808;17.856;2023-04-30T12:21:52;100900.81;;;16.16
48854;BMP280;34673;52.808;17.856;2023-04-30T12:24:20;100895.75;;;16.10
48854;BMP280;34673;52.808;17.856;2023-04-30T12:26:52;100903.81;;;15.99
48854;BMP280;34673;52.808;17.856;2023-04-30T12:29:22;100902.88;;;16.02
48854;BMP280;34673;52.808;17.856;2023-04-30T12:31:52;100905.53;;;15.99
48854;BMP280;34673;52.808;17.856;2023-04-30T12:34:20;100915.34;;;15.87
48854;BMP280;34673;52.808;17.856;2023-04-30T12:36:48;100908.63;;;15.76
48854;BMP280;34673;52.808;17.856;2023-04-30T12:39:16;100895.56;;;15.77
48854;BMP280;34673;52.808;17.856;2023-04-30T12:41:48;100896.44;;;15.76
48854;BMP280;34673;52.808;17.856;2023-04-30T12:44:23;100894.75;;;15.75
48854;BMP280;34673;52.808;17.856;2023-04-30T12:46:55;100906.88;;;15.76
48854;BMP280;34673;52.808;17.856;2023-04-30T12:49:32;100907.66;;;15.81
48854;BMP280;34673;52.808;17.856;2023-04-30T12:52:01;100905.19;;;15.75
48854;BMP280;34673;52.808;17.856;2023-04-30T12:54:31;100893.00;;;15.74
48854;BMP280;34673;52.808;17.856;2023-04-30T12:57:09;100894.22;;;15.56
48854;BMP280;34673;52.808;17.856;2023-04-30T12:59:58;100898.88;;;15.40
48854;BMP280;34673;52.808;17.856;2023-04-30T13:02:27;100892.88;;;15.35
48854;BMP280;34673;52.808;17.856;2023-04-30T13:04:55;100889.63;;;15.24
48854;BMP280;34673;52.808;17.856;2023-04-30T13:07:23;100895.63;;;15.29
48854;BMP280;34673;52.808;17.856;2023-04-30T13:09:50;100882.31;;;15.44
48854;BMP280;34673;52.808;17.856;2023-04-30T13:12:17;100897.88;;;15.47
48854;BMP280;34673;52.808;17.856;2023-04-30T13:14:45;100883.22;;;15.40
48854;BMP280;34673;52.808;17.856;2023-04-30T13:17:12;100877.97;;;15.43
48854;BMP280;34673;52.808;17.856;2023-04-30T13:19:40;100879.69;;;15.44
48854;BMP280;34673;52.808;17.856;2023-04-30T13:22:07;100886.75;;;15.39
48854;BMP280;34673;52.808;17.856;2023-04-30T13:24:34;100884.84;;;15.47
48854;BMP280;34673;52.808;17.856;2023-04-30T13:27:02;100890.78;;;15.54
48854;BMP280;34673;52.808;17.856;2023-04-30T13:29:29;100882.06;;;15.55
48854;BMP280;34673;52.808;17.856;2023-04-30T13:31:57;100879.44;;;15.57
48854;BMP280;34673;52.808;17.856;2023-04-30T13:34:25;100874.34;;;15.50
48854;BMP280;34673;52.808;17.856;2023-04-30T13:36:52;100888.38;;;15.43
48854;BMP280;34673;52.808;17.856;2023-04-30T13:39:19;100879.91;;;15.32
48854;BMP280;34673;52.808;17.856;2023-04-30T13:41:47;100878.38;;;15.22
48854;BMP280;34673;52.808;17.856;2023-04-30T13:44:15;100871.50;;;15.18
48854;BMP280;34673;52.808;17.856;2023-04-30T13:46:43;100869.78;;;15.17
48854;BMP280;34673;52.808;17.856;2023-04-30T13:49:10;100871.50;;;15.18
48854;BMP280;34673;52.808;17.856;2023-04-30T13:51:37;100873.16;;;15.22
48854;BMP280;34673;52.808;17.856;2023-04-30T13:54:04;100874.00;;;15.24
48854;BMP280;34673;52.808;17.856;2023-04-30T13:56:31;100871.38;;;15.24
48854;BMP280;34673;52.808;17.856;2023-04-30T13:58:59;100863.56;;;15.24
48854;BMP280;34673;52.808;17.856;2023-04-30T14:01:26;100858.34;;;15.24
48854;BMP280;34673;52.808;17.856;2023-04-30T14:03:53;100868.78;;;15.22
48854;BMP280;34673;52.808;17.856;2023-04-30T14:06:21;100869.72;;;15.20
48854;BMP280;34673;52.808;17.856;2023-04-30T14:08:48;100869.06;;;15.08
48854;BMP280;34673;52.808;17.856;2023-04-30T14:11:15;100875.22;;;15.04
48854;BMP280;34673;52.808;17.856;2023-04-30T14:13:43;100847.69;;;14.91
48854;BMP280;34673;52.808;17.856;2023-04-30T14:16:10;100865.88;;;14.93
48854;BMP280;34673;52.808;17.856;2023-04-30T14:18:37;100859.13;;;14.81
48854;BMP280;34673;52.808;17.856;2023-04-30T14:21:04;100865.31;;;14.77